^^
Station Historical Data
 
Daily Summary for May 26, 2015 Units:  English    Metric   Both
« Previous Day
Next Day »
Daily Weekly Monthly Yearly Custom
  Current: High: Low: Average:
Temperature: 76.9 °F 77.6 °F 75.0 °F 76.1 °F
Dew Point: 75.0 °F 75.0 °F 73.2 °F 73.6 °F
Humidity: 94% 95% 88% 92%
Wind Speed: 1.0mph 3.5mph 0.0mph 1.2mph
Wind Gust: 1.0mph 3.5mph - -
WindEast - - East
Pressure: 30.17 in 30.17 in 30.13 in -
Precipitation: 0.00 in      
Historical Graphs
 
 
Tabular Data for May 26, 2015
Time Temperature Dew Point Pressure Wind Wind Speed Wind Gust Humidity Rainfall Rate (Hourly) solar Conditions
00:00 77.6 °F 73.8 °F 30.17 in ESE 2.3 mph 2.3 mph 88% 0.00 in 0.0 W/m2 CLR
00:05 77.5 °F 73.7 °F 30.17 in ENE 1.2 mph 1.2 mph 88% 0.00 in 0.0 W/m2 SCT
00:10 77.4 °F 73.6 °F 30.17 in East 1.2 mph 1.2 mph 88% 0.00 in 0.0 W/m2 SCT
00:15 77.3 °F 73.5 °F 30.17 in East 1.2 mph 1.2 mph 88% 0.00 in 0.0 W/m2 SCT
00:20 77.2 °F 73.7 °F 30.17 in ESE 3.5 mph 3.5 mph 89% 0.00 in 0.0 W/m2 SCT
00:25 77.2 °F 73.7 °F 30.16 in ESE 3.5 mph 3.5 mph 89% 0.00 in 0.0 W/m2 SCT
00:30 77.1 °F 73.6 °F 30.16 in ESE 2.3 mph 2.3 mph 89% 0.00 in 0.0 W/m2 SCT
00:35 77.1 °F 73.6 °F 30.16 in ESE 3.5 mph 3.5 mph 89% 0.00 in 0.0 W/m2 SCT
00:40 77.0 °F 73.5 °F 30.16 in NE 2.0 mph 2.0 mph 89% 0.00 in 0.0 W/m2 SCT
00:45 77.0 °F 73.5 °F 30.16 in ESE 1.2 mph 1.2 mph 89% 0.00 in 0.0 W/m2 SCT
00:50 76.9 °F 73.7 °F 30.16 in ESE 1.2 mph 1.2 mph 90% 0.00 in 0.0 W/m2 SCT
00:55 76.9 °F 73.7 °F 30.16 in ESE 1.0 mph 2.0 mph 90% 0.00 in 0.0 W/m2 SCT
01:00 76.8 °F 73.6 °F 30.16 in ENE 2.3 mph 2.3 mph 90% 0.00 in 0.0 W/m2 SCT
01:10 76.8 °F 73.6 °F 30.16 in East 1.2 mph   90% 0.00 in 0.0 W/m2 FEW
01:15 76.7 °F 73.5 °F 30.15 in SE 2.3 mph   90% 0.00 in 0.0 W/m2 FEW
01:20 76.7 °F 73.9 °F 30.16 in East 1.2 mph 1.2 mph 91% 0.00 in 0.0 W/m2 FEW
01:25 76.6 °F 73.8 °F 30.15 in ESE 1.0 mph 2.0 mph 91% 0.00 in 0.0 W/m2 FEW
01:30 76.7 °F 73.9 °F 30.15 in SE 2.3 mph 2.3 mph 91% 0.00 in 0.0 W/m2 FEW
01:35 76.7 °F 73.9 °F 30.15 in ESE 1.0 mph 3.0 mph 91% 0.00 in 0.0 W/m2 FEW
01:40 76.7 °F 73.9 °F 30.15 in SE 1.2 mph 1.2 mph 91% 0.00 in 0.0 W/m2 FEW
01:45 76.7 °F 73.9 °F 30.14 in ENE 2.3 mph 2.3 mph 91% 0.00 in 0.0 W/m2 FEW
01:50 76.7 °F 73.9 °F 30.14 in East 1.2 mph 1.2 mph 91% 0.00 in 0.0 W/m2 FEW
01:55 76.6 °F 73.8 °F 30.14 in ESE 2.3 mph 2.3 mph 91% 0.00 in 0.0 W/m2 FEW
02:00 76.6 °F 73.8 °F 30.14 in NE 1.2 mph 1.2 mph 91% 0.00 in 0.0 W/m2 FEW
02:05 76.6 °F 73.8 °F 30.14 in ESE 1.2 mph 1.2 mph 91% 0.00 in 0.0 W/m2 CLR
02:10 76.5 °F 73.7 °F 30.13 in ENE 3.5 mph 3.5 mph 91% 0.00 in 0.0 W/m2 CLR
02:15 76.4 °F 73.6 °F 30.13 in ESE 1.2 mph 1.2 mph 91% 0.00 in 0.0 W/m2 CLR
02:20 76.4 °F 73.6 °F 30.13 in ENE 1.2 mph 1.2 mph 91% 0.00 in 0.0 W/m2 CLR
02:25 76.3 °F 73.5 °F 30.13 in ESE 1.2 mph 1.2 mph 91% 0.00 in 0.0 W/m2 CLR
02:30 76.2 °F 73.4 °F 30.13 in Calm     91% 0.00 in 0.0 W/m2 CLR
02:35 76.2 °F 73.4 °F 30.13 in East 1.2 mph 1.2 mph 91% 0.00 in 0.0 W/m2 CLR
02:40 76.2 °F 73.4 °F 30.13 in East 1.2 mph 1.2 mph 91% 0.00 in 0.0 W/m2 CLR
02:45 76.2 °F 73.4 °F 30.13 in East 1.2 mph   91% 0.00 in 0.0 W/m2 CLR
02:50 76.2 °F 73.4 °F 30.13 in ENE 2.3 mph 2.3 mph 91% 0.00 in 0.0 W/m2 CLR
02:55 76.2 °F 73.4 °F 30.13 in ENE 1.2 mph 1.2 mph 91% 0.00 in 0.0 W/m2 CLR
03:00 76.2 °F 73.4 °F 30.13 in ESE 2.3 mph 2.3 mph 91% 0.00 in 0.0 W/m2 CLR
03:05 76.2 °F 73.4 °F 30.13 in Calm   2.0 mph 91% 0.00 in 0.0 W/m2 CLR
03:10 76.3 °F 73.5 °F 30.13 in East 1.2 mph 1.2 mph 91% 0.00 in 0.0 W/m2 CLR
03:15 76.3 °F 73.5 °F 30.13 in East 1.2 mph   91% 0.00 in 0.0 W/m2 CLR
03:20 76.3 °F 73.5 °F 30.13 in SE 1.2 mph 1.2 mph 91% 0.00 in 0.0 W/m2 CLR
03:25 76.2 °F 73.4 °F 30.13 in ENE 2.0 mph 2.0 mph 91% 0.00 in 0.0 W/m2 CLR
03:30 76.2 °F 73.4 °F 30.13 in ENE 1.2 mph 1.2 mph 91% 0.00 in 0.0 W/m2 CLR
03:35 76.2 °F 73.4 °F 30.13 in East 1.2 mph 1.2 mph 91% 0.00 in 0.0 W/m2 CLR
03:40 76.1 °F 73.3 °F 30.13 in ENE 2.0 mph 2.0 mph 91% 0.00 in 0.0 W/m2 CLR
03:45 76.1 °F 73.6 °F 30.13 in ENE 1.2 mph 1.2 mph 92% 0.00 in 0.0 W/m2 CLR
03:50 76.1 °F 73.6 °F 30.13 in East 1.2 mph   92% 0.00 in 0.0 W/m2 CLR
03:55 76.0 °F 73.5 °F 30.13 in East 1.2 mph   92% 0.00 in 0.0 W/m2 CLR
04:00 76.0 °F 73.5 °F 30.13 in East 1.2 mph 1.2 mph 92% 0.00 in 0.0 W/m2 CLR
04:05 76.0 °F 73.5 °F 30.13 in East 1.0 mph 2.0 mph 92% 0.00 in 0.0 W/m2 CLR
04:10 75.9 °F 73.4 °F 30.13 in Calm     92% 0.00 in 0.0 W/m2 CLR
04:15 75.9 °F 73.4 °F 30.14 in Calm     92% 0.00 in 0.0 W/m2 CLR
04:20 75.8 °F 73.3 °F 30.14 in Calm     92% 0.00 in 0.0 W/m2 CLR
04:25 75.8 °F 73.3 °F 30.14 in Calm     92% 0.00 in 0.0 W/m2 CLR
04:30 75.8 °F 73.6 °F 30.14 in Calm     93% 0.00 in 0.0 W/m2 CLR
04:35 75.8 °F 73.6 °F 30.14 in Calm   1.0 mph 93% 0.00 in 0.0 W/m2 CLR
04:40 75.8 °F 73.6 °F 30.14 in Calm     93% 0.00 in 0.0 W/m2 CLR
04:45 75.7 °F 73.5 °F 30.14 in Calm   0.1 mph 93% 0.00 in 0.0 W/m2 CLR
04:50 75.7 °F 73.5 °F 30.13 in ENE 1.2 mph   93% 0.00 in 0.0 W/m2 CLR
04:55 75.7 °F 73.5 °F 30.13 in Calm   1.0 mph 93% 0.00 in 0.0 W/m2 CLR
05:00 75.6 °F 73.4 °F 30.14 in Calm     93% 0.00 in 0.0 W/m2 CLR
05:05 75.6 °F 73.4 °F 30.14 in Calm   1.0 mph 93% 0.00 in 0.0 W/m2 FEW
05:10 75.6 °F 73.4 °F 30.14 in ENE 1.2 mph 1.2 mph 93% 0.00 in 0.0 W/m2 FEW
05:20 75.5 °F 73.3 °F 30.14 in Calm     93% 0.00 in 0.0 W/m2 FEW
05:25 75.4 °F 73.2 °F 30.14 in Calm   1.0 mph 93% 0.00 in 0.0 W/m2 FEW
05:30 75.4 °F 73.6 °F 30.15 in ENE 1.2 mph 1.2 mph 94% 0.00 in 0.0 W/m2 FEW
05:35 75.3 °F 73.5 °F 30.15 in Calm   1.0 mph 94% 0.00 in 0.0 W/m2 FEW
05:40 75.3 °F 73.5 °F 30.15 in Calm     94% 0.00 in 0.0 W/m2 FEW
05:45 75.3 °F 73.5 °F 30.15 in ENE 2.3 mph 2.3 mph 94% 0.00 in 0.0 W/m2 FEW
05:50 75.3 °F 73.5 °F 30.15 in ENE 2.3 mph 2.3 mph 94% 0.00 in 0.0 W/m2 FEW
05:55 75.3 °F 73.5 °F 30.15 in ENE 1.0 mph 2.0 mph 94% 0.00 in 0.0 W/m2 FEW
06:00 75.3 °F 73.5 °F 30.15 in ENE 2.3 mph 2.3 mph 94% 0.00 in 0.0 W/m2 FEW
06:05 75.2 °F 73.4 °F 30.15 in NE 2.3 mph 2.3 mph 94% 0.00 in 0.0 W/m2 FEW
06:10 75.2 °F 73.4 °F 30.15 in ENE 2.3 mph 2.3 mph 94% 0.00 in 0.0 W/m2 FEW
06:15 75.2 °F 73.4 °F 30.16 in ENE 1.2 mph 1.2 mph 94% 0.00 in 0.0 W/m2 FEW
06:20 75.1 °F 73.3 °F 30.16 in ENE 1.0 mph 1.0 mph 94% 0.00 in 0.0 W/m2 FEW
06:25 75.1 °F 73.3 °F 30.16 in Calm   1.0 mph 94% 0.00 in 0.0 W/m2 FEW
06:30 75.1 °F 73.3 °F 30.16 in ENE 1.2 mph 1.2 mph 94% 0.00 in 0.0 W/m2 FEW
06:35 75.0 °F 73.2 °F 30.16 in Calm     94% 0.00 in 0.0 W/m2 FEW
06:40 75.0 °F 73.2 °F 30.16 in Calm     94% 0.00 in 0.0 W/m2 FEW
06:45 75.0 °F 73.2 °F 30.16 in ENE 1.2 mph   94% 0.00 in 0.0 W/m2 FEW
06:50 75.0 °F 73.2 °F 30.16 in ENE 1.0 mph 1.0 mph 94% 0.00 in 0.0 W/m2 FEW
06:55 75.0 °F 73.5 °F 30.16 in ENE 1.0 mph 1.0 mph 95% 0.00 in 0.0 W/m2 FEW
07:00 75.1 °F 73.6 °F 30.16 in ENE 1.2 mph   95% 0.00 in 0.0 W/m2 FEW
07:05 75.3 °F 73.8 °F 30.17 in Calm   1.0 mph 95% 0.00 in 0.0 W/m2 CLR
07:10 75.8 °F 74.3 °F 30.17 in Calm     95% 0.00 in 0.0 W/m2 CLR
07:15 76.4 °F 74.5 °F 30.17 in Calm     94% 0.00 in 0.0 W/m2 CLR
07:20 76.9 °F 75.0 °F 30.17 in East 1.0 mph 1.0 mph 94% 0.00 in 0.0 W/m2 CLR
Lake Mary, FL, USA
Compliments of Weather Underground